This is the latest recevied weather packets stored in our database for station/object N0SWP-3. If no packets are shown the sender has not sent any weather packets the latest 10 day(s).
| Time | Temp. | Humidity | Pressure | Rain* | Wind** | Luminosity | Snow |
|---|---|---|---|---|---|---|---|
| 1777169523 | 21.11° C | 70% | 1008.3 hPa | 0 mm | - | - | - |
| 1777167903 | 21.11° C | 69% | 1008.1 hPa | 0 mm | - | - | - |
| 1777164663 | 22.78° C | 64% | 1007.4 hPa | 0 mm | - | - | - |
| 1777164304 | 22.78° C | 63% | 1007.5 hPa | 0 mm | - | - | - |
| 1777163943 | 23.33° C | 62% | 1007.4 hPa | 0 mm | - | - | - |
| 1777160883 | 24.44° C | 61% | 1006.7 hPa | 0 mm | - | - | - |
| 1777160703 | 24.44° C | 60% | 1006.8 hPa | 0 mm | - | - | - |
| 1777160523 | 24.44° C | 60% | 1006.8 hPa | 0 mm | - | - | - |
| 1777159263 | 24.44° C | 60% | 1007.9 hPa | 0 mm | - | - | - |
| 1777158183 | 23.89° C | 61% | 1007.6 hPa | 0 mm | - | - | - |
| 1777157823 | 23.89° C | 60% | 1007.4 hPa | 0 mm | - | - | - |
| 1777157463 | 23.89° C | 60% | 1007.4 hPa | 0 mm | - | - | - |
| 1777156383 | 23.89° C | 58% | 1007.3 hPa | 0 mm | - | - | - |
| 1777154943 | 24.44° C | 58% | 1008.1 hPa | 0 mm | - | - | - |
| 1777154223 | 24.44° C | 59% | 1008.2 hPa | 0 mm | - | - | - |
| 1777154045 | 24.44° C | 58% | 1008.2 hPa | 0 mm | - | - | - |
| 1777153997 | 24.44° C | 60% | 1008.2 hPa | 0 mm | - | - | - |
| 1777153143 | 23.89° C | 59% | 1008.5 hPa | 0 mm | - | - | - |
| 1777152963 | 23.89° C | 60% | 1008.6 hPa | 0 mm | - | - | - |
| 1777151883 | 23.89° C | 61% | 1008.9 hPa | 0 mm | - | - | - |
| 1777151523 | 23.89° C | 59% | 1009 hPa | 0 mm | - | - | - |
| 1777150803 | 23.89° C | 58% | 1009 hPa | 0 mm | - | - | - |
| 1777150083 | 23.89° C | 60% | 1009.4 hPa | 0 mm | - | - | - |
| 1777149903 | 23.89° C | 59% | 1009.4 hPa | 0 mm | - | - | - |
| 1777148823 | 24.44° C | 58% | 1009.6 hPa | 0 mm | - | - | - |
* Rain latest hour (hover to see other rain measurements)
** Current wind speed in m/s (hover to see current wind gust speed)